Terminal Aerodrome Forecast
Issued by NWS Shreveport, LA

Home | Current Version | Previous Version | Text Only | Print | Product List | Glossary On
Versions: 1 2 3 4 5 6 7 8 9 10 11 12 13 14 15 16 17 18 19 20 21 22
000
FTUS44 KSHV 031900 AAA
TAFSHV
TAF AMD
KSHV 031944Z 0320/0418 16004KT P6SM OVC007
      TEMPO 0320/0321 SCT008 OVC016
     FM032100 19006KT P6SM BKN016
     FM040000 15008KT P6SM SCT025 OVC050
     FM040600 17006KT P6SM OVC015
     FM040900 18005KT 4SM BR OVC004
     FM041500 18006KT 2SM BR OVC001=

USA.gov is the U.S. government's official web portal to all federal, state and local government web resources and services.